sensor_id;sensor_type;location;lat;lon;timestamp;P1;durP1;ratioP1;P2;durP2;ratioP2
6878;SDS011;3478;51.462;7.338;2023-05-10T00:01:49;2.10;;;2.00;;
6878;SDS011;3478;51.462;7.338;2023-05-10T00:06:51;2.20;;;2.10;;
6878;SDS011;3478;51.462;7.338;2023-05-10T00:11:53;2.20;;;2.00;;
6878;SDS011;3478;51.462;7.338;2023-05-10T00:16:56;3.20;;;2.23;;
6878;SDS011;3478;51.462;7.338;2023-05-10T00:21:58;2.30;;;2.10;;
6878;SDS011;3478;51.462;7.338;2023-05-10T00:27:00;3.40;;;2.90;;
6878;SDS011;3478;51.462;7.338;2023-05-10T00:32:05;2.77;;;2.57;;
6878;SDS011;3478;51.462;7.338;2023-05-10T00:37:07;2.57;;;2.37;;
6878;SDS011;3478;51.462;7.338;2023-05-10T00:42:09;3.03;;;2.73;;
6878;SDS011;3478;51.462;7.338;2023-05-10T00:47:12;3.13;;;2.40;;
6878;SDS011;3478;51.462;7.338;2023-05-10T00:52:14;3.93;;;3.40;;
6878;SDS011;3478;51.462;7.338;2023-05-10T00:57:16;4.10;;;3.70;;
6878;SDS011;3478;51.462;7.338;2023-05-10T01:02:20;5.33;;;3.83;;
6878;SDS011;3478;51.462;7.338;2023-05-10T01:07:21;4.90;;;4.20;;
6878;SDS011;3478;51.462;7.338;2023-05-10T01:12:23;4.07;;;3.67;;
6878;SDS011;3478;51.462;7.338;2023-05-10T01:17:27;5.13;;;4.63;;
6878;SDS011;3478;51.462;7.338;2023-05-10T01:22:39;5.97;;;5.37;;
6878;SDS011;3478;51.462;7.338;2023-05-10T01:28:24;8.13;;;5.20;;
6878;SDS011;3478;51.462;7.338;2023-05-10T01:33:46;6.93;;;6.33;;
6878;SDS011;3478;51.462;7.338;2023-05-10T01:38:51;6.77;;;6.13;;
6878;SDS011;3478;51.462;7.338;2023-05-10T01:44:00;6.93;;;6.30;;
6878;SDS011;3478;51.462;7.338;2023-05-10T01:49:08;6.30;;;5.73;;
6878;SDS011;3478;51.462;7.338;2023-05-10T01:54:10;6.97;;;6.30;;
6878;SDS011;3478;51.462;7.338;2023-05-10T01:59:15;6.53;;;5.93;;
6878;SDS011;3478;51.462;7.338;2023-05-10T02:04:22;6.77;;;5.57;;
6878;SDS011;3478;51.462;7.338;2023-05-10T02:09:26;6.70;;;6.10;;
6878;SDS011;3478;51.462;7.338;2023-05-10T02:14:32;6.80;;;5.87;;
6878;SDS011;3478;51.462;7.338;2023-05-10T02:19:39;7.87;;;7.10;;
6878;SDS011;3478;51.462;7.338;2023-05-10T02:24:42;8.63;;;7.27;;
6878;SDS011;3478;51.462;7.338;2023-05-10T02:29:46;7.70;;;6.03;;
6878;SDS011;3478;51.462;7.338;2023-05-10T02:34:50;9.10;;;7.67;;
6878;SDS011;3478;51.462;7.338;2023-05-10T02:39:53;13.00;;;9.10;;
6878;SDS011;3478;51.462;7.338;2023-05-10T02:44:59;14.67;;;9.07;;
6878;SDS011;3478;51.462;7.338;2023-05-10T02:50:04;10.60;;;8.37;;
6878;SDS011;3478;51.462;7.338;2023-05-10T02:55:08;9.53;;;8.40;;
6878;SDS011;3478;51.462;7.338;2023-05-10T03:00:12;10.00;;;8.90;;
6878;SDS011;3478;51.462;7.338;2023-05-10T03:05:16;10.23;;;7.87;;
6878;SDS011;3478;51.462;7.338;2023-05-10T03:10:18;17.03;;;9.40;;
6878;SDS011;3478;51.462;7.338;2023-05-10T03:15:26;11.10;;;8.10;;
6878;SDS011;3478;51.462;7.338;2023-05-10T03:20:41;8.63;;;7.63;;
6878;SDS011;3478;51.462;7.338;2023-05-10T03:25:45;11.83;;;8.40;;
6878;SDS011;3478;51.462;7.338;2023-05-10T03:30:49;11.63;;;8.20;;
6878;SDS011;3478;51.462;7.338;2023-05-10T03:35:54;11.50;;;8.67;;
6878;SDS011;3478;51.462;7.338;2023-05-10T03:40:56;15.87;;;8.63;;
6878;SDS011;3478;51.462;7.338;2023-05-10T03:45:58;13.20;;;8.57;;
6878;SDS011;3478;51.462;7.338;2023-05-10T03:51:03;12.40;;;8.73;;
6878;SDS011;3478;51.462;7.338;2023-05-10T03:56:06;9.67;;;7.70;;
6878;SDS011;3478;51.462;7.338;2023-05-10T04:01:07;10.90;;;7.70;;
6878;SDS011;3478;51.462;7.338;2023-05-10T04:06:11;10.03;;;6.90;;
6878;SDS011;3478;51.462;7.338;2023-05-10T04:11:12;15.37;;;8.00;;
6878;SDS011;3478;51.462;7.338;2023-05-10T04:16:14;16.50;;;8.97;;
6878;SDS011;3478;51.462;7.338;2023-05-10T04:21:18;13.07;;;8.67;;
6878;SDS011;3478;51.462;7.338;2023-05-10T04:26:20;17.57;;;10.80;;
6878;SDS011;3478;51.462;7.338;2023-05-10T04:31:22;16.70;;;10.97;;
6878;SDS011;3478;51.462;7.338;2023-05-10T04:36:25;22.90;;;13.67;;
6878;SDS011;3478;51.462;7.338;2023-05-10T04:41:27;19.67;;;12.20;;
6878;SDS011;3478;51.462;7.338;2023-05-10T04:46:29;16.90;;;12.23;;
6878;SDS011;3478;51.462;7.338;2023-05-10T04:51:32;23.67;;;12.57;;
6878;SDS011;3478;51.462;7.338;2023-05-10T04:56:34;24.10;;;14.27;;
6878;SDS011;3478;51.462;7.338;2023-05-10T05:01:36;28.87;;;14.23;;
6878;SDS011;3478;51.462;7.338;2023-05-10T05:06:39;29.40;;;16.03;;
6878;SDS011;3478;51.462;7.338;2023-05-10T05:11:41;23.53;;;15.97;;
6878;SDS011;3478;51.462;7.338;2023-05-10T05:16:43;20.97;;;14.27;;
6878;SDS011;3478;51.462;7.338;2023-05-10T05:21:47;25.63;;;16.27;;
6878;SDS011;3478;51.462;7.338;2023-05-10T05:26:49;31.73;;;16.70;;
6878;SDS011;3478;51.462;7.338;2023-05-10T05:31:51;27.40;;;17.67;;
6878;SDS011;3478;51.462;7.338;2023-05-10T05:36:54;28.97;;;16.47;;
6878;SDS011;3478;51.462;7.338;2023-05-10T05:41:56;28.83;;;18.63;;
6878;SDS011;3478;51.462;7.338;2023-05-10T05:46:58;33.30;;;19.23;;
6878;SDS011;3478;51.462;7.338;2023-05-10T05:52:02;29.97;;;18.80;;
6878;SDS011;3478;51.462;7.338;2023-05-10T05:57:04;33.20;;;19.60;;
6878;SDS011;3478;51.462;7.338;2023-05-10T06:02:06;36.83;;;20.80;;
6878;SDS011;3478;51.462;7.338;2023-05-10T06:07:10;40.03;;;22.77;;
6878;SDS011;3478;51.462;7.338;2023-05-10T06:12:12;37.30;;;20.37;;
6878;SDS011;3478;51.462;7.338;2023-05-10T06:17:14;40.03;;;22.70;;
6878;SDS011;3478;51.462;7.338;2023-05-10T06:22:17;37.80;;;22.00;;
6878;SDS011;3478;51.462;7.338;2023-05-10T06:27:19;38.13;;;22.07;;
6878;SDS011;3478;51.462;7.338;2023-05-10T06:32:21;37.30;;;21.37;;
6878;SDS011;3478;51.462;7.338;2023-05-10T06:37:25;38.00;;;23.70;;
6878;SDS011;3478;51.462;7.338;2023-05-10T06:42:27;36.97;;;22.00;;
6878;SDS011;3478;51.462;7.338;2023-05-10T06:47:29;41.77;;;23.10;;
6878;SDS011;3478;51.462;7.338;2023-05-10T06:52:32;45.43;;;23.00;;
6878;SDS011;3478;51.462;7.338;2023-05-10T06:57:34;39.37;;;23.10;;
6878;SDS011;3478;51.462;7.338;2023-05-10T07:02:36;47.53;;;26.37;;
6878;SDS011;3478;51.462;7.338;2023-05-10T07:07:39;38.33;;;21.60;;
6878;SDS011;3478;51.462;7.338;2023-05-10T07:12:42;43.73;;;23.97;;
6878;SDS011;3478;51.462;7.338;2023-05-10T07:17:44;35.53;;;21.60;;
6878;SDS011;3478;51.462;7.338;2023-05-10T07:22:47;37.57;;;24.03;;
6878;SDS011;3478;51.462;7.338;2023-05-10T07:27:49;40.90;;;23.37;;
6878;SDS011;3478;51.462;7.338;2023-05-10T07:32:51;34.63;;;20.97;;
6878;SDS011;3478;51.462;7.338;2023-05-10T07:37:55;31.00;;;20.07;;
6878;SDS011;3478;51.462;7.338;2023-05-10T07:42:59;34.90;;;18.63;;
6878;SDS011;3478;51.462;7.338;2023-05-10T07:48:02;32.03;;;19.87;;
6878;SDS011;3478;51.462;7.338;2023-05-10T07:53:05;35.33;;;20.27;;
6878;SDS011;3478;51.462;7.338;2023-05-10T07:58:07;39.63;;;22.10;;
6878;SDS011;3478;51.462;7.338;2023-05-10T08:03:09;40.27;;;21.60;;
6878;SDS011;3478;51.462;7.338;2023-05-10T08:08:13;38.97;;;21.40;;
6878;SDS011;3478;51.462;7.338;2023-05-10T08:13:15;38.90;;;22.97;;
6878;SDS011;3478;51.462;7.338;2023-05-10T08:18:17;38.13;;;23.00;;
6878;SDS011;3478;51.462;7.338;2023-05-10T08:23:20;43.17;;;22.30;;
6878;SDS011;3478;51.462;7.338;2023-05-10T08:28:22;45.60;;;24.23;;
6878;SDS011;3478;51.462;7.338;2023-05-10T08:33:24;34.53;;;20.60;;
6878;SDS011;3478;51.462;7.338;2023-05-10T08:38:28;36.30;;;19.60;;
6878;SDS011;3478;51.462;7.338;2023-05-10T08:43:29;27.10;;;15.57;;
6878;SDS011;3478;51.462;7.338;2023-05-10T08:48:32;36.13;;;19.43;;
6878;SDS011;3478;51.462;7.338;2023-05-10T08:53:37;35.13;;;18.43;;
6878;SDS011;3478;51.462;7.338;2023-05-10T08:58:40;28.47;;;16.33;;
6878;SDS011;3478;51.462;7.338;2023-05-10T09:03:42;28.67;;;16.27;;
6878;SDS011;3478;51.462;7.338;2023-05-10T09:08:48;27.00;;;15.00;;
6878;SDS011;3478;51.462;7.338;2023-05-10T09:13:50;25.83;;;14.50;;
6878;SDS011;3478;51.462;7.338;2023-05-10T09:18:53;20.70;;;13.37;;
6878;SDS011;3478;51.462;7.338;2023-05-10T09:23:56;15.87;;;10.87;;
6878;SDS011;3478;51.462;7.338;2023-05-10T09:29:03;15.77;;;10.77;;
6878;SDS011;3478;51.462;7.338;2023-05-10T09:34:06;13.90;;;8.07;;
6878;SDS011;3478;51.462;7.338;2023-05-10T09:39:10;11.27;;;8.10;;
6878;SDS011;3478;51.462;7.338;2023-05-10T09:44:14;11.83;;;7.40;;
6878;SDS011;3478;51.462;7.338;2023-05-10T09:49:20;9.23;;;7.43;;
6878;SDS011;3478;51.462;7.338;2023-05-10T09:54:23;9.83;;;7.10;;
6878;SDS011;3478;51.462;7.338;2023-05-10T09:59:26;12.43;;;7.90;;
6878;SDS011;3478;51.462;7.338;2023-05-10T10:04:28;14.67;;;8.63;;
6878;SDS011;3478;51.462;7.338;2023-05-10T10:09:32;10.53;;;8.60;;
6878;SDS011;3478;51.462;7.338;2023-05-10T10:14:35;8.67;;;7.03;;
6878;SDS011;3478;51.462;7.338;2023-05-10T10:19:37;9.43;;;7.90;;
6878;SDS011;3478;51.462;7.338;2023-05-10T10:24:41;17.57;;;10.00;;
6878;SDS011;3478;51.462;7.338;2023-05-10T10:29:59;13.83;;;9.37;;
6878;SDS011;3478;51.462;7.338;2023-05-10T10:35:08;16.17;;;9.03;;
6878;SDS011;3478;51.462;7.338;2023-05-10T10:40:24;19.93;;;11.67;;
6878;SDS011;3478;51.462;7.338;2023-05-10T10:45:27;23.10;;;14.47;;
6878;SDS011;3478;51.462;7.338;2023-05-10T10:50:29;29.13;;;16.27;;
6878;SDS011;3478;51.462;7.338;2023-05-10T10:55:32;21.80;;;12.70;;
6878;SDS011;3478;51.462;7.338;2023-05-10T11:00:36;13.87;;;9.13;;
6878;SDS011;3478;51.462;7.338;2023-05-10T11:05:41;15.83;;;10.40;;
6878;SDS011;3478;51.462;7.338;2023-05-10T11:10:52;14.53;;;9.97;;
6878;SDS011;3478;51.462;7.338;2023-05-10T11:16:10;15.33;;;10.03;;
6878;SDS011;3478;51.462;7.338;2023-05-10T11:21:13;15.80;;;10.23;;
6878;SDS011;3478;51.462;7.338;2023-05-10T11:26:18;15.30;;;11.97;;
6878;SDS011;3478;51.462;7.338;2023-05-10T11:31:23;13.87;;;11.10;;
6878;SDS011;3478;51.462;7.338;2023-05-10T11:36:27;15.20;;;11.27;;
6878;SDS011;3478;51.462;7.338;2023-05-10T11:41:32;24.80;;;14.87;;
6878;SDS011;3478;51.462;7.338;2023-05-10T11:46:34;21.53;;;13.83;;
6878;SDS011;3478;51.462;7.338;2023-05-10T11:51:38;18.50;;;13.80;;
6878;SDS011;3478;51.462;7.338;2023-05-10T11:56:43;14.20;;;11.17;;
6878;SDS011;3478;51.462;7.338;2023-05-10T12:01:45;14.70;;;10.70;;
6878;SDS011;3478;51.462;7.338;2023-05-10T12:06:48;17.13;;;10.23;;
6878;SDS011;3478;51.462;7.338;2023-05-10T12:11:54;15.43;;;10.27;;
6878;SDS011;3478;51.462;7.338;2023-05-10T12:16:57;9.10;;;7.93;;
6878;SDS011;3478;51.462;7.338;2023-05-10T12:21:59;7.53;;;6.70;;
6878;SDS011;3478;51.462;7.338;2023-05-10T12:27:06;11.13;;;7.70;;
6878;SDS011;3478;51.462;7.338;2023-05-10T12:32:09;12.33;;;8.47;;
6878;SDS011;3478;51.462;7.338;2023-05-10T12:37:12;17.93;;;9.77;;
6878;SDS011;3478;51.462;7.338;2023-05-10T12:42:15;9.60;;;8.60;;
6878;SDS011;3478;51.462;7.338;2023-05-10T12:47:18;9.20;;;7.50;;
6878;SDS011;3478;51.462;7.338;2023-05-10T12:52:20;10.10;;;8.80;;
6878;SDS011;3478;51.462;7.338;2023-05-10T12:57:23;9.33;;;7.50;;
6878;SDS011;3478;51.462;7.338;2023-05-10T13:02:25;10.13;;;8.57;;
6878;SDS011;3478;51.462;7.338;2023-05-10T13:07:27;9.80;;;8.70;;
6878;SDS011;3478;51.462;7.338;2023-05-10T13:12:31;8.67;;;7.60;;
6878;SDS011;3478;51.462;7.338;2023-05-10T13:17:33;10.53;;;9.20;;
6878;SDS011;3478;51.462;7.338;2023-05-10T13:22:35;13.83;;;10.30;;
6878;SDS011;3478;51.462;7.338;2023-05-10T13:27:39;13.43;;;12.00;;
6878;SDS011;3478;51.462;7.338;2023-05-10T13:32:41;15.47;;;12.73;;
6878;SDS011;3478;51.462;7.338;2023-05-10T13:37:43;15.00;;;13.50;;
6878;SDS011;3478;51.462;7.338;2023-05-10T13:42:46;12.13;;;10.17;;
6878;SDS011;3478;51.462;7.338;2023-05-10T13:47:48;10.30;;;8.50;;
6878;SDS011;3478;51.462;7.338;2023-05-10T13:52:50;4.33;;;4.03;;
6878;SDS011;3478;51.462;7.338;2023-05-10T13:57:54;6.23;;;5.57;;
6878;SDS011;3478;51.462;7.338;2023-05-10T14:02:56;5.53;;;5.10;;
6878;SDS011;3478;51.462;7.338;2023-05-10T14:07:58;5.93;;;5.10;;
6878;SDS011;3478;51.462;7.338;2023-05-10T14:13:01;6.10;;;3.20;;
6878;SDS011;3478;51.462;7.338;2023-05-10T14:18:03;2.70;;;2.50;;
6878;SDS011;3478;51.462;7.338;2023-05-10T14:23:05;3.70;;;3.40;;
6878;SDS011;3478;51.462;7.338;2023-05-10T14:28:09;3.17;;;2.97;;
6878;SDS011;3478;51.462;7.338;2023-05-10T14:33:11;2.70;;;2.50;;
6878;SDS011;3478;51.462;7.338;2023-05-10T14:38:14;2.77;;;2.27;;
6878;SDS011;3478;51.462;7.338;2023-05-10T14:43:17;2.50;;;2.30;;
6878;SDS011;3478;51.462;7.338;2023-05-10T14:48:20;1.80;;;1.53;;
6878;SDS011;3478;51.462;7.338;2023-05-10T14:53:22;2.20;;;1.53;;
6878;SDS011;3478;51.462;7.338;2023-05-10T14:58:26;1.73;;;1.47;;
6878;SDS011;3478;51.462;7.338;2023-05-10T15:03:28;2.23;;;2.13;;
6878;SDS011;3478;51.462;7.338;2023-05-10T15:08:30;4.80;;;3.60;;
6878;SDS011;3478;51.462;7.338;2023-05-10T15:13:33;5.17;;;3.73;;
6878;SDS011;3478;51.462;7.338;2023-05-10T15:18:35;4.73;;;3.67;;
6878;SDS011;3478;51.462;7.338;2023-05-10T15:23:37;3.10;;;2.90;;
6878;SDS011;3478;51.462;7.338;2023-05-10T15:28:41;4.40;;;2.97;;
6878;SDS011;3478;51.462;7.338;2023-05-10T15:33:43;3.00;;;2.80;;
6878;SDS011;3478;51.462;7.338;2023-05-10T15:38:45;3.80;;;3.50;;
6878;SDS011;3478;51.462;7.338;2023-05-10T15:43:50;4.80;;;4.50;;
6878;SDS011;3478;51.462;7.338;2023-05-10T15:48:52;5.00;;;4.70;;
6878;SDS011;3478;51.462;7.338;2023-05-10T15:53:54;8.70;;;5.00;;
6878;SDS011;3478;51.462;7.338;2023-05-10T15:58:57;5.93;;;5.43;;
6878;SDS011;3478;51.462;7.338;2023-05-10T16:03:59;6.00;;;5.00;;
6878;SDS011;3478;51.462;7.338;2023-05-10T16:09:01;7.07;;;5.40;;
6878;SDS011;3478;51.462;7.338;2023-05-10T16:14:05;7.90;;;6.23;;
6878;SDS011;3478;51.462;7.338;2023-05-10T16:19:07;6.27;;;5.53;;
6878;SDS011;3478;51.462;7.338;2023-05-10T16:24:09;6.53;;;5.90;;
6878;SDS011;3478;51.462;7.338;2023-05-10T16:29:12;7.93;;;7.20;;
6878;SDS011;3478;51.462;7.338;2023-05-10T16:34:14;10.10;;;7.90;;
6878;SDS011;3478;51.462;7.338;2023-05-10T16:39:16;8.13;;;7.33;;
6878;SDS011;3478;51.462;7.338;2023-05-10T16:44:20;11.10;;;8.83;;
6878;SDS011;3478;51.462;7.338;2023-05-10T16:49:22;8.87;;;7.97;;
6878;SDS011;3478;51.462;7.338;2023-05-10T16:54:25;8.30;;;7.50;;
6878;SDS011;3478;51.462;7.338;2023-05-10T16:59:30;8.50;;;7.70;;
6878;SDS011;3478;51.462;7.338;2023-05-10T17:04:31;7.77;;;7.07;;
6878;SDS011;3478;51.462;7.338;2023-05-10T17:09:33;9.60;;;8.70;;
6878;SDS011;3478;51.462;7.338;2023-05-10T17:14:37;11.17;;;7.60;;
6878;SDS011;3478;51.462;7.338;2023-05-10T17:19:39;10.50;;;9.50;;
6878;SDS011;3478;51.462;7.338;2023-05-10T17:24:44;10.80;;;9.13;;
6878;SDS011;3478;51.462;7.338;2023-05-10T17:29:47;12.40;;;11.20;;
6878;SDS011;3478;51.462;7.338;2023-05-10T17:34:49;13.17;;;11.53;;
6878;SDS011;3478;51.462;7.338;2023-05-10T17:39:51;21.83;;;13.70;;
6878;SDS011;3478;51.462;7.338;2023-05-10T17:44:55;15.83;;;13.17;;
6878;SDS011;3478;51.462;7.338;2023-05-10T17:49:57;19.57;;;13.50;;
6878;SDS011;3478;51.462;7.338;2023-05-10T17:54:59;17.50;;;14.83;;
6878;SDS011;3478;51.462;7.338;2023-05-10T18:00:03;20.53;;;15.07;;
6878;SDS011;3478;51.462;7.338;2023-05-10T18:05:08;27.37;;;16.97;;
6878;SDS011;3478;51.462;7.338;2023-05-10T18:10:11;21.57;;;14.83;;
6878;SDS011;3478;51.462;7.338;2023-05-10T18:15:14;18.40;;;15.33;;
6878;SDS011;3478;51.462;7.338;2023-05-10T18:20:16;19.80;;;14.97;;
6878;SDS011;3478;51.462;7.338;2023-05-10T18:25:18;19.63;;;13.40;;
6878;SDS011;3478;51.462;7.338;2023-05-10T18:30:22;19.70;;;13.47;;
6878;SDS011;3478;51.462;7.338;2023-05-10T18:35:25;14.13;;;11.93;;
6878;SDS011;3478;51.462;7.338;2023-05-10T18:40:27;13.97;;;11.70;;
6878;SDS011;3478;51.462;7.338;2023-05-10T18:45:30;14.57;;;11.20;;
6878;SDS011;3478;51.462;7.338;2023-05-10T18:50:32;12.20;;;9.13;;
6878;SDS011;3478;51.462;7.338;2023-05-10T18:55:34;9.87;;;8.87;;
6878;SDS011;3478;51.462;7.338;2023-05-10T19:00:37;10.20;;;8.70;;
6878;SDS011;3478;51.462;7.338;2023-05-10T19:05:54;8.27;;;7.47;;
6878;SDS011;3478;51.462;7.338;2023-05-10T19:10:57;9.03;;;8.10;;
6878;SDS011;3478;51.462;7.338;2023-05-10T19:16:09;6.13;;;5.50;;
6878;SDS011;3478;51.462;7.338;2023-05-10T19:21:11;10.43;;;5.77;;
6878;SDS011;3478;51.462;7.338;2023-05-10T19:26:13;5.03;;;4.47;;
6878;SDS011;3478;51.462;7.338;2023-05-10T19:31:16;5.30;;;4.80;;
6878;SDS011;3478;51.462;7.338;2023-05-10T19:36:19;4.17;;;3.87;;
6878;SDS011;3478;51.462;7.338;2023-05-10T19:41:21;3.73;;;3.40;;
6878;SDS011;3478;51.462;7.338;2023-05-10T19:46:24;6.30;;;4.53;;
6878;SDS011;3478;51.462;7.338;2023-05-10T19:51:26;5.90;;;4.97;;
6878;SDS011;3478;51.462;7.338;2023-05-10T19:56:28;4.90;;;4.50;;
6878;SDS011;3478;51.462;7.338;2023-05-10T20:01:31;5.47;;;4.87;;
6878;SDS011;3478;51.462;7.338;2023-05-10T20:06:33;7.37;;;5.47;;
6878;SDS011;3478;51.462;7.338;2023-05-10T20:11:35;4.30;;;4.00;;
6878;SDS011;3478;51.462;7.338;2023-05-10T20:16:38;6.23;;;3.80;;
6878;SDS011;3478;51.462;7.338;2023-05-10T20:21:40;10.73;;;4.83;;
6878;SDS011;3478;51.462;7.338;2023-05-10T20:26:42;7.20;;;6.07;;
6878;SDS011;3478;51.462;7.338;2023-05-10T20:31:45;12.43;;;6.73;;
6878;SDS011;3478;51.462;7.338;2023-05-10T20:36:47;10.77;;;7.03;;
6878;SDS011;3478;51.462;7.338;2023-05-10T20:41:54;12.90;;;7.50;;
6878;SDS011;3478;51.462;7.338;2023-05-10T20:46:57;12.70;;;10.13;;
6878;SDS011;3478;51.462;7.338;2023-05-10T20:52:00;11.00;;;9.03;;
6878;SDS011;3478;51.462;7.338;2023-05-10T20:57:02;12.83;;;10.07;;
6878;SDS011;3478;51.462;7.338;2023-05-10T21:02:05;18.87;;;12.13;;
6878;SDS011;3478;51.462;7.338;2023-05-10T21:07:07;19.50;;;12.30;;
6878;SDS011;3478;51.462;7.338;2023-05-10T21:12:09;16.83;;;11.43;;
6878;SDS011;3478;51.462;7.338;2023-05-10T21:17:12;15.07;;;11.73;;
6878;SDS011;3478;51.462;7.338;2023-05-10T21:22:14;18.63;;;12.20;;
6878;SDS011;3478;51.462;7.338;2023-05-10T21:27:16;18.67;;;13.20;;
6878;SDS011;3478;51.462;7.338;2023-05-10T21:32:20;17.10;;;12.90;;
6878;SDS011;3478;51.462;7.338;2023-05-10T21:37:22;17.07;;;13.27;;
6878;SDS011;3478;51.462;7.338;2023-05-10T21:42:24;18.17;;;13.50;;
6878;SDS011;3478;51.462;7.338;2023-05-10T21:47:28;18.70;;;12.53;;
6878;SDS011;3478;51.462;7.338;2023-05-10T21:52:30;17.37;;;11.47;;
6878;SDS011;3478;51.462;7.338;2023-05-10T21:57:32;19.20;;;13.70;;
6878;SDS011;3478;51.462;7.338;2023-05-10T22:02:36;17.90;;;11.33;;
6878;SDS011;3478;51.462;7.338;2023-05-10T22:07:38;17.83;;;13.37;;
6878;SDS011;3478;51.462;7.338;2023-05-10T22:12:40;19.00;;;12.40;;
6878;SDS011;3478;51.462;7.338;2023-05-10T22:17:43;17.17;;;11.97;;
6878;SDS011;3478;51.462;7.338;2023-05-10T22:22:45;13.20;;;11.70;;
6878;SDS011;3478;51.462;7.338;2023-05-10T22:27:47;12.87;;;10.80;;
6878;SDS011;3478;51.462;7.338;2023-05-10T22:32:50;18.00;;;12.63;;
6878;SDS011;3478;51.462;7.338;2023-05-10T22:37:53;21.10;;;12.20;;
6878;SDS011;3478;51.462;7.338;2023-05-10T22:42:55;16.87;;;11.30;;
6878;SDS011;3478;51.462;7.338;2023-05-10T22:47:59;15.90;;;11.83;;
6878;SDS011;3478;51.462;7.338;2023-05-10T22:53:03;15.40;;;11.47;;
6878;SDS011;3478;51.462;7.338;2023-05-10T22:58:05;15.67;;;10.97;;
6878;SDS011;3478;51.462;7.338;2023-05-10T23:03:09;16.90;;;11.83;;
6878;SDS011;3478;51.462;7.338;2023-05-10T23:08:11;21.30;;;12.70;;
6878;SDS011;3478;51.462;7.338;2023-05-10T23:13:13;15.53;;;11.80;;
6878;SDS011;3478;51.462;7.338;2023-05-10T23:18:17;16.17;;;11.97;;
6878;SDS011;3478;51.462;7.338;2023-05-10T23:23:19;14.83;;;11.30;;
6878;SDS011;3478;51.462;7.338;2023-05-10T23:28:21;22.90;;;12.23;;
6878;SDS011;3478;51.462;7.338;2023-05-10T23:33:25;16.40;;;11.70;;
6878;SDS011;3478;51.462;7.338;2023-05-10T23:38:27;16.77;;;11.90;;
6878;SDS011;3478;51.462;7.338;2023-05-10T23:43:29;21.23;;;13.50;;
6878;SDS011;3478;51.462;7.338;2023-05-10T23:48:32;18.73;;;12.90;;
6878;SDS011;3478;51.462;7.338;2023-05-10T23:53:34;19.90;;;12.40;;
6878;SDS011;3478;51.462;7.338;2023-05-10T23:58:36;25.97;;;14.57;;
